createdAt,value
2023-03-06T00:00:01.668Z,67.65
2023-03-06T00:00:57.697Z,67.03
2023-03-06T00:01:53.736Z,66.30
2023-03-06T00:02:49.763Z,66.20
2023-03-06T00:03:45.369Z,66.30
2023-03-06T00:04:41.343Z,67.76
2023-03-06T00:05:37.427Z,66.82
2023-03-06T00:06:33.383Z,66.72
2023-03-06T00:07:28.969Z,66.93
2023-03-06T00:08:24.999Z,67.13
2023-03-06T00:09:20.523Z,66.38
2023-03-06T00:10:16.531Z,67.13
2023-03-06T00:11:12.558Z,66.51
2023-03-06T00:12:08.570Z,67.13
2023-03-06T00:13:04.174Z,66.27
2023-03-06T00:13:59.710Z,66.61
2023-03-06T00:14:55.261Z,66.61
2023-03-06T00:15:50.847Z,67.27
2023-03-06T00:16:46.820Z,67.34
2023-03-06T00:17:42.369Z,68.17
2023-03-06T00:18:37.962Z,67.65
2023-03-06T00:19:33.507Z,67.24
2023-03-06T00:20:29.064Z,68.07
2023-03-06T00:21:24.609Z,67.37
2023-03-06T00:22:20.149Z,67.65
2023-03-06T00:23:15.702Z,68.20
2023-03-06T00:24:11.746Z,68.10
2023-03-06T00:25:07.741Z,68.10
2023-03-06T00:26:03.301Z,67.65
2023-03-06T00:26:59.312Z,68.07
2023-03-06T00:27:54.864Z,67.96
2023-03-06T00:28:50.449Z,67.65
2023-03-06T00:29:45.996Z,68.72
2023-03-06T00:30:42.016Z,68.10
2023-03-06T00:31:37.591Z,68.17
2023-03-06T00:32:33.624Z,68.93
2023-03-06T00:33:29.594Z,69.13
2023-03-06T00:34:25.616Z,69.03
2023-03-06T00:35:21.692Z,69.76
2023-03-06T00:36:17.693Z,70.31
2023-03-06T00:37:13.694Z,70.10
2023-03-06T00:38:09.731Z,69.65
2023-03-06T00:39:05.823Z,69.45
2023-03-06T00:40:01.312Z,69.65
2023-03-06T00:40:56.846Z,69.86
2023-03-06T00:41:52.860Z,69.03
2023-03-06T00:42:48.413Z,69.65
2023-03-06T00:43:43.967Z,68.82
2023-03-06T00:44:39.980Z,69.03
2023-03-06T00:45:36.572Z,69.03
2023-03-06T00:46:32.094Z,68.82
2023-03-06T00:47:27.646Z,68.62
2023-03-06T00:48:23.215Z,68.62
2023-03-06T00:49:18.849Z,68.72
2023-03-06T00:50:14.338Z,68.82
2023-03-06T00:51:12.791Z,68.96
2023-03-06T00:52:05.922Z,68.93
2023-03-06T00:53:01.485Z,69.34
2023-03-06T00:53:57.496Z,69.03
2023-03-06T00:54:53.057Z,68.96
2023-03-06T00:55:49.085Z,69.58
2023-03-06T00:56:45.089Z,69.96
2023-03-06T00:57:41.148Z,68.96
2023-03-06T00:58:36.695Z,69.03
2023-03-06T00:59:32.250Z,68.82
2023-03-06T01:00:27.797Z,68.82
2023-03-06T01:01:23.839Z,69.24
2023-03-06T01:02:19.951Z,68.96
2023-03-06T01:03:15.410Z,69.03
2023-03-06T01:04:11.427Z,68.85
2023-03-06T01:05:06.981Z,68.82
2023-03-06T01:06:02.544Z,70.07
2023-03-06T01:06:58.567Z,69.89
2023-03-06T01:07:54.124Z,69.03
2023-03-06T01:08:49.697Z,68.72
2023-03-06T01:09:45.715Z,68.82
2023-03-06T01:10:41.273Z,67.68
2023-03-06T01:11:37.310Z,68.93
2023-03-06T01:12:33.310Z,69.24
2023-03-06T01:13:29.330Z,69.76
2023-03-06T01:14:24.884Z,69.45
2023-03-06T01:15:20.922Z,69.17
2023-03-06T01:16:16.982Z,69.03
2023-03-06T01:17:12.493Z,68.82
2023-03-06T01:18:08.516Z,69.13
2023-03-06T01:19:04.064Z,68.82
2023-03-06T01:19:59.660Z,68.82
2023-03-06T01:20:55.687Z,69.24
2023-03-06T01:21:51.237Z,69.45
2023-03-06T01:22:46.787Z,69.86
2023-03-06T01:23:42.805Z,70.07
2023-03-06T01:24:38.367Z,68.93
2023-03-06T01:25:33.942Z,68.82
2023-03-06T01:26:29.484Z,68.72
2023-03-06T01:27:25.054Z,69.13
2023-03-06T01:28:21.071Z,68.62
2023-03-06T01:29:17.078Z,68.82
2023-03-06T01:30:13.086Z,69.34
2023-03-06T01:31:09.114Z,68.72
2023-03-06T01:32:05.279Z,69.24
2023-03-06T01:33:00.712Z,70.17
2023-03-06T01:33:56.271Z,69.34
2023-03-06T01:34:52.288Z,69.13
2023-03-06T01:35:48.367Z,68.72
2023-03-06T01:36:44.344Z,68.72
2023-03-06T01:37:39.890Z,68.93
2023-03-06T01:38:35.437Z,68.93
2023-03-06T01:39:30.967Z,69.03
2023-03-06T01:40:27.115Z,68.93
2023-03-06T01:41:23.027Z,68.72
2023-03-06T01:42:19.047Z,69.13
2023-03-06T01:43:14.612Z,68.72
2023-03-06T01:44:10.754Z,69.03
2023-03-06T01:45:06.655Z,69.68
2023-03-06T01:46:02.237Z,69.03
2023-03-06T01:46:58.242Z,69.34
2023-03-06T01:47:54.260Z,69.96
2023-03-06T01:48:50.272Z,68.82
2023-03-06T01:49:46.296Z,68.93
2023-03-06T01:50:41.862Z,69.24
2023-03-06T01:51:38.400Z,68.82
2023-03-06T01:52:34.430Z,68.93
2023-03-06T01:53:30.437Z,69.34
2023-03-06T01:54:26.467Z,69.13
2023-03-06T01:55:22.477Z,69.34
2023-03-06T01:56:18.495Z,69.65
2023-03-06T01:57:14.532Z,69.65
2023-03-06T01:58:10.573Z,69.65
2023-03-06T01:59:06.222Z,69.03
2023-03-06T02:00:02.151Z,69.65
2023-03-06T02:00:57.714Z,69.86
2023-03-06T02:01:53.238Z,69.17
2023-03-06T02:02:48.796Z,69.86
2023-03-06T02:03:44.347Z,70.07
2023-03-06T02:04:39.902Z,69.76
2023-03-06T02:05:35.930Z,70.07
2023-03-06T02:06:31.955Z,70.07
2023-03-06T02:07:27.969Z,70.07
2023-03-06T02:08:24.003Z,70.69
2023-03-06T02:09:19.558Z,70.28
2023-03-06T02:10:15.205Z,70.10
2023-03-06T02:11:11.169Z,70.28
2023-03-06T02:12:07.152Z,70.07
2023-03-06T02:13:02.722Z,70.51
2023-03-06T02:13:58.307Z,69.86
2023-03-06T02:14:53.856Z,70.38
2023-03-06T02:15:49.870Z,70.48
2023-03-06T02:16:45.944Z,71.03
2023-03-06T02:17:41.439Z,70.00
2023-03-06T02:18:37.469Z,70.28
2023-03-06T02:19:33.043Z,70.72
2023-03-06T02:20:29.082Z,70.31
2023-03-06T02:21:24.617Z,69.76
2023-03-06T02:22:20.157Z,69.86
2023-03-06T02:23:15.699Z,70.28
2023-03-06T02:24:11.252Z,70.17
2023-03-06T02:25:07.309Z,70.38
2023-03-06T02:26:03.317Z,70.31
2023-03-06T02:26:59.363Z,70.38
2023-03-06T02:27:55.347Z,71.42
2023-03-06T02:28:51.367Z,70.83
2023-03-06T02:29:47.405Z,70.93
2023-03-06T02:30:43.021Z,71.11
2023-03-06T02:31:38.995Z,71.42
2023-03-06T02:32:35.024Z,70.28
2023-03-06T02:33:31.042Z,70.38
2023-03-06T02:34:27.054Z,70.48
2023-03-06T02:35:23.120Z,70.38
2023-03-06T02:36:19.117Z,71.11
2023-03-06T02:37:15.132Z,70.90
2023-03-06T02:38:11.169Z,70.31
2023-03-06T02:39:07.189Z,69.86
2023-03-06T02:40:02.963Z,71.00
2023-03-06T02:40:58.976Z,70.48
2023-03-06T02:41:55.012Z,71.73
2023-03-06T02:42:50.586Z,71.00
2023-03-06T02:43:46.578Z,70.69
2023-03-06T02:44:42.594Z,70.48
2023-03-06T02:45:38.710Z,70.79
2023-03-06T02:46:34.815Z,70.90
2023-03-06T02:47:30.282Z,71.62
2023-03-06T02:48:26.316Z,70.59
2023-03-06T02:49:22.342Z,71.52
2023-03-06T02:50:17.893Z,71.42
2023-03-06T02:51:13.912Z,71.11
2023-03-06T02:52:09.948Z,71.11
2023-03-06T02:53:05.966Z,71.00
2023-03-06T02:54:01.982Z,70.38
2023-03-06T02:54:58.015Z,70.90
2023-03-06T02:55:54.020Z,70.48
2023-03-06T02:56:50.043Z,69.96
2023-03-06T02:57:45.587Z,71.11
2023-03-06T02:58:41.144Z,70.79
2023-03-06T02:59:37.180Z,71.21
2023-03-06T03:00:32.730Z,71.42
2023-03-06T03:01:28.833Z,71.52
2023-03-06T03:02:24.817Z,71.31
2023-03-06T03:03:20.820Z,71.00
2023-03-06T03:04:16.472Z,71.11
2023-03-06T03:05:11.961Z,71.00
2023-03-06T03:06:07.527Z,71.31
2023-03-06T03:07:03.074Z,71.11
2023-03-06T03:07:59.124Z,71.52
2023-03-06T03:08:54.641Z,71.08
2023-03-06T03:09:50.672Z,71.00
2023-03-06T03:10:46.727Z,71.11
2023-03-06T03:11:42.744Z,71.31
2023-03-06T03:12:38.758Z,70.48
2023-03-06T03:13:34.768Z,71.00
2023-03-06T03:14:30.784Z,71.00
2023-03-06T03:15:26.796Z,71.21
2023-03-06T03:16:22.837Z,71.00
2023-03-06T03:17:18.858Z,71.18
2023-03-06T03:18:14.436Z,71.18
2023-03-06T03:19:09.972Z,71.42
2023-03-06T03:20:05.534Z,71.18
2023-03-06T03:21:01.553Z,71.11
2023-03-06T03:21:57.122Z,71.18
2023-03-06T03:22:52.697Z,71.18
2023-03-06T03:23:48.250Z,71.21
2023-03-06T03:24:44.345Z,71.28
2023-03-06T03:25:39.812Z,71.31
2023-03-06T03:26:35.855Z,71.70
2023-03-06T03:27:31.399Z,71.18
2023-03-06T03:28:27.461Z,71.28
2023-03-06T03:29:23.036Z,71.49
2023-03-06T03:30:18.568Z,71.18
2023-03-06T03:31:14.616Z,71.49
2023-03-06T03:32:10.718Z,71.28
2023-03-06T03:33:06.221Z,71.08
2023-03-06T03:34:02.210Z,71.08
2023-03-06T03:34:57.739Z,71.28
2023-03-06T03:35:53.340Z,71.18
2023-03-06T03:36:48.843Z,71.28
2023-03-06T03:37:44.910Z,71.80
2023-03-06T03:38:40.449Z,71.28
2023-03-06T03:39:36.041Z,71.39
2023-03-06T03:40:32.050Z,71.08
2023-03-06T03:41:27.639Z,71.08
2023-03-06T03:42:23.182Z,71.28
2023-03-06T03:43:19.223Z,71.08
2023-03-06T03:44:14.768Z,70.56
2023-03-06T03:45:10.811Z,71.28
2023-03-06T03:46:06.889Z,71.08
2023-03-06T03:47:02.875Z,70.87
2023-03-06T03:47:58.447Z,71.28
2023-03-06T03:48:54.008Z,71.28
2023-03-06T03:49:49.586Z,70.87
2023-03-06T03:50:45.130Z,71.28
2023-03-06T03:51:41.154Z,71.08
2023-03-06T03:52:37.203Z,70.97
2023-03-06T03:53:32.776Z,71.08
2023-03-06T03:54:28.805Z,71.49
2023-03-06T03:55:24.831Z,71.39
2023-03-06T03:56:20.412Z,71.08
2023-03-06T03:57:16.425Z,71.04
2023-03-06T03:58:11.987Z,71.39
2023-03-06T03:59:07.534Z,71.39
2023-03-06T04:00:03.556Z,71.28
2023-03-06T04:00:59.570Z,71.08
2023-03-06T04:01:55.164Z,71.08
2023-03-06T04:02:51.168Z,71.08
2023-03-06T04:03:47.212Z,71.14
2023-03-06T04:04:43.311Z,71.04
2023-03-06T04:05:39.269Z,70.83
2023-03-06T04:06:35.275Z,71.35
2023-03-06T04:07:30.825Z,70.83
2023-03-06T04:08:26.873Z,71.28
2023-03-06T04:09:22.904Z,71.04
2023-03-06T04:10:18.920Z,70.94
2023-03-06T04:11:14.479Z,71.18
2023-03-06T04:12:10.519Z,71.08
2023-03-06T04:13:09.536Z,71.04
2023-03-06T04:14:02.562Z,71.14
2023-03-06T04:14:58.594Z,71.35
2023-03-06T04:15:54.208Z,71.25
2023-03-06T04:16:49.701Z,71.04
2023-03-06T04:17:45.239Z,71.45
2023-03-06T04:18:41.267Z,71.04
2023-03-06T04:19:37.299Z,71.25
2023-03-06T04:20:33.333Z,71.45
2023-03-06T04:21:29.371Z,71.25
2023-03-06T04:22:25.391Z,71.04
2023-03-06T04:23:21.412Z,71.66
2023-03-06T04:24:17.454Z,71.14
2023-03-06T04:25:13.470Z,71.66
2023-03-06T04:26:09.511Z,71.56
2023-03-06T04:27:05.059Z,72.18
2023-03-06T04:28:01.076Z,72.18
2023-03-06T04:28:57.084Z,71.97
2023-03-06T04:29:53.106Z,71.35
2023-03-06T04:30:48.661Z,71.56
2023-03-06T04:31:44.779Z,71.35
2023-03-06T04:32:40.816Z,71.35
2023-03-06T04:33:36.308Z,71.35
2023-03-06T04:34:31.863Z,71.45
2023-03-06T04:35:27.932Z,71.35
2023-03-06T04:36:23.427Z,71.35
2023-03-06T04:37:18.996Z,71.14
2023-03-06T04:38:15.010Z,70.94
2023-03-06T04:39:10.586Z,71.04
2023-03-06T04:40:06.132Z,70.83
2023-03-06T04:41:01.683Z,71.35
2023-03-06T04:41:57.695Z,70.83
2023-03-06T04:42:53.704Z,71.25
2023-03-06T04:43:49.766Z,71.25
2023-03-06T04:44:45.798Z,71.04
2023-03-06T04:45:41.403Z,71.14
2023-03-06T04:46:37.323Z,71.14
2023-03-06T04:47:32.864Z,70.94
2023-03-06T04:48:28.402Z,71.35
2023-03-06T04:49:23.977Z,70.21
2023-03-06T04:50:19.521Z,69.79
2023-03-06T04:51:15.158Z,70.83
2023-03-06T04:52:10.741Z,70.21
2023-03-06T04:53:06.380Z,70.42
2023-03-06T04:54:02.514Z,70.21
2023-03-06T04:54:58.060Z,70.31
2023-03-06T04:55:53.608Z,70.00
2023-03-06T04:56:49.153Z,70.73
2023-03-06T04:57:44.715Z,70.31
2023-03-06T04:58:40.293Z,70.42
2023-03-06T04:59:38.752Z,70.52
2023-03-06T05:00:31.918Z,70.52
2023-03-06T05:01:27.857Z,70.00
2023-03-06T05:02:23.490Z,70.31
2023-03-06T05:03:19.432Z,70.52
2023-03-06T05:04:15.457Z,69.79
2023-03-06T05:05:11.018Z,69.79
2023-03-06T05:06:06.575Z,70.31
2023-03-06T05:07:02.120Z,69.79
2023-03-06T05:07:57.695Z,70.10
2023-03-06T05:08:53.263Z,70.21
2023-03-06T05:09:48.790Z,70.10
2023-03-06T05:10:44.838Z,70.21
2023-03-06T05:11:40.391Z,70.00
2023-03-06T05:12:36.400Z,70.00
2023-03-06T05:13:32.421Z,70.21
2023-03-06T05:14:28.435Z,70.21
2023-03-06T05:15:24.453Z,70.10
2023-03-06T05:16:20.514Z,70.31
2023-03-06T05:17:16.029Z,70.10
2023-03-06T05:18:12.071Z,69.79
2023-03-06T05:19:08.084Z,69.79
2023-03-06T05:20:04.115Z,69.79
2023-03-06T05:20:59.654Z,70.31
2023-03-06T05:21:55.717Z,70.10
2023-03-06T05:22:51.745Z,69.79
2023-03-06T05:23:47.784Z,69.79
2023-03-06T05:24:43.866Z,70.31
2023-03-06T05:25:39.823Z,70.21
2023-03-06T05:26:35.855Z,70.62
2023-03-06T05:27:31.889Z,70.21
2023-03-06T05:28:27.438Z,70.35
2023-03-06T05:29:23.010Z,70.21
2023-03-06T05:30:18.556Z,70.31
2023-03-06T05:31:14.589Z,70.04
2023-03-06T05:32:12.771Z,70.21
2023-03-06T05:33:08.161Z,69.69
2023-03-06T05:34:03.746Z,70.10
2023-03-06T05:34:59.330Z,70.10
2023-03-06T05:35:55.403Z,69.90
2023-03-06T05:36:50.921Z,70.00
2023-03-06T05:37:46.477Z,70.25
2023-03-06T05:38:42.501Z,70.10
2023-03-06T05:39:38.521Z,70.45
2023-03-06T05:40:34.660Z,70.21
2023-03-06T05:41:30.761Z,69.83
2023-03-06T05:42:28.562Z,69.93
2023-03-06T05:43:22.295Z,70.21
2023-03-06T05:44:18.433Z,70.14
2023-03-06T05:45:14.456Z,70.25
2023-03-06T05:46:10.074Z,69.93
2023-03-06T05:47:05.660Z,70.21
2023-03-06T05:48:01.684Z,69.83
2023-03-06T05:48:57.737Z,69.90
2023-03-06T05:49:53.736Z,69.79
2023-03-06T05:50:49.754Z,69.83
2023-03-06T05:51:45.309Z,69.73
2023-03-06T05:52:40.853Z,69.90
2023-03-06T05:53:36.494Z,69.93
2023-03-06T05:54:32.019Z,69.83
2023-03-06T05:55:28.024Z,70.04
2023-03-06T05:56:24.067Z,70.04
2023-03-06T05:57:20.101Z,70.04
2023-03-06T05:58:15.657Z,69.93
2023-03-06T05:59:11.775Z,70.14
2023-03-06T06:00:07.340Z,70.14
2023-03-06T06:01:02.856Z,69.83
2023-03-06T06:01:58.451Z,69.93
2023-03-06T06:02:54.465Z,69.83
2023-03-06T06:03:50.628Z,69.10
2023-03-06T06:04:46.509Z,69.93
2023-03-06T06:05:42.522Z,69.48
2023-03-06T06:06:38.100Z,69.52
2023-03-06T06:07:33.674Z,69.83
2023-03-06T06:08:29.255Z,69.93
2023-03-06T06:09:24.792Z,70.14
2023-03-06T06:10:20.344Z,70.04
2023-03-06T06:11:15.896Z,69.83
2023-03-06T06:12:11.476Z,69.62
2023-03-06T06:13:07.016Z,70.04
2023-03-06T06:14:03.061Z,70.17
2023-03-06T06:14:58.605Z,69.83
2023-03-06T06:15:54.241Z,69.62
2023-03-06T06:16:49.723Z,69.73
2023-03-06T06:17:45.259Z,69.52
2023-03-06T06:18:41.527Z,69.73
2023-03-06T06:19:36.840Z,69.62
2023-03-06T06:20:32.380Z,69.83
2023-03-06T06:21:27.935Z,69.21
2023-03-06T06:22:23.519Z,69.00
2023-03-06T06:23:19.072Z,69.10
2023-03-06T06:24:14.635Z,69.83
2023-03-06T06:25:10.167Z,69.73
2023-03-06T06:26:05.711Z,70.25
2023-03-06T06:27:03.927Z,69.93
2023-03-06T06:27:57.709Z,70.04
2023-03-06T06:28:54.255Z,70.07
2023-03-06T06:29:49.800Z,69.83
2023-03-06T06:30:45.405Z,69.83
2023-03-06T06:31:40.908Z,70.14
2023-03-06T06:32:36.543Z,70.25
2023-03-06T06:33:32.007Z,70.14
2023-03-06T06:34:28.026Z,70.17
2023-03-06T06:35:24.120Z,70.07
2023-03-06T06:36:19.694Z,70.14
2023-03-06T06:37:15.240Z,69.96
2023-03-06T06:38:11.308Z,69.86
2023-03-06T06:39:07.350Z,70.04
2023-03-06T06:40:02.886Z,69.73
2023-03-06T06:41:33.066Z,69.62
2023-03-06T06:42:06.323Z,69.76
2023-03-06T06:42:50.009Z,70.38
2023-03-06T06:43:46.068Z,70.28
2023-03-06T06:44:41.588Z,70.04
2023-03-06T06:45:37.136Z,70.17
2023-03-06T06:47:19.276Z,70.04
2023-03-06T06:47:28.278Z,69.10
2023-03-06T06:48:23.771Z,69.03
2023-03-06T06:49:19.335Z,69.34
2023-03-06T06:50:15.379Z,69.65
2023-03-06T06:51:10.911Z,70.14
2023-03-06T06:52:06.481Z,69.62
2023-03-06T06:53:02.008Z,69.00
2023-03-06T06:53:57.562Z,69.42
2023-03-06T06:54:53.617Z,69.10
2023-03-06T06:55:49.209Z,69.00
2023-03-06T06:56:44.772Z,69.00
2023-03-06T06:57:40.793Z,69.31
2023-03-06T06:58:36.351Z,69.62
2023-03-06T06:59:32.386Z,69.21
2023-03-06T07:00:27.929Z,69.62
2023-03-06T07:01:24.026Z,70.04
2023-03-06T07:02:19.500Z,70.14
2023-03-06T07:03:15.051Z,69.96
2023-03-06T07:04:10.670Z,69.42
2023-03-06T07:05:06.155Z,69.62
2023-03-06T07:06:01.714Z,69.73
2023-03-06T07:06:57.350Z,69.31
2023-03-06T07:07:52.915Z,68.79
2023-03-06T07:08:48.948Z,68.90
2023-03-06T07:09:55.779Z,69.00
2023-03-06T07:10:51.324Z,70.14
2023-03-06T07:11:55.029Z,69.65
2023-03-06T07:12:51.144Z,69.52
2023-03-06T07:13:47.138Z,69.52
2023-03-06T07:14:43.165Z,70.07
2023-03-06T07:15:39.277Z,69.86
2023-03-06T07:16:35.168Z,69.83
2023-03-06T07:17:32.200Z,70.14
2023-03-06T07:18:29.261Z,69.93
2023-03-06T07:19:25.289Z,69.83
2023-03-06T07:20:21.372Z,69.76
2023-03-06T07:21:17.417Z,69.42
2023-03-06T07:22:13.830Z,69.45
2023-03-06T07:23:09.575Z,69.83
2023-03-06T07:24:05.653Z,69.83
2023-03-06T07:25:01.697Z,69.83
2023-03-06T07:25:57.742Z,69.24
2023-03-06T07:26:53.844Z,69.21
2023-03-06T07:27:53.651Z,69.52
2023-03-06T07:28:52.283Z,70.04
2023-03-06T07:29:41.932Z,69.73
2023-03-06T07:30:38.033Z,69.62
2023-03-06T07:31:34.030Z,69.93
2023-03-06T07:32:30.053Z,69.83
2023-03-06T07:33:26.410Z,69.10
2023-03-06T07:34:22.204Z,68.90
2023-03-06T07:35:20.853Z,69.10
2023-03-06T07:36:15.299Z,69.10
2023-03-06T07:37:11.349Z,69.27
2023-03-06T07:38:07.388Z,69.21
2023-03-06T07:39:03.495Z,68.79
2023-03-06T07:40:00.618Z,69.21
2023-03-06T07:40:56.610Z,69.42
2023-03-06T07:41:52.613Z,69.07
2023-03-06T07:42:48.715Z,69.21
2023-03-06T07:43:44.793Z,68.90
2023-03-06T07:44:40.872Z,68.76
2023-03-06T07:45:37.022Z,69.31
2023-03-06T07:46:33.027Z,68.76
2023-03-06T07:47:20.269Z,68.76
2023-03-06T07:48:17.360Z,68.90
2023-03-06T07:49:25.693Z,68.76
2023-03-06T07:50:24.159Z,68.65
2023-03-06T07:51:20.310Z,69.07
2023-03-06T07:52:16.262Z,69.27
2023-03-06T07:53:13.327Z,68.65
2023-03-06T07:54:10.417Z,69.27
2023-03-06T07:55:18.102Z,68.86
2023-03-06T07:56:15.151Z,69.07
2023-03-06T07:57:11.115Z,68.65
2023-03-06T07:58:07.287Z,69.07
2023-03-06T07:59:03.329Z,69.24
2023-03-06T08:00:01.306Z,68.76
2023-03-06T08:00:57.621Z,68.76
2023-03-06T08:01:53.666Z,69.07
2023-03-06T08:02:50.704Z,69.07
2023-03-06T08:03:47.835Z,68.76
2023-03-06T08:04:43.809Z,69.07
2023-03-06T08:05:39.923Z,69.14
2023-03-06T08:06:48.064Z,68.76
2023-03-06T08:07:44.061Z,68.83
2023-03-06T08:08:40.157Z,68.73
2023-03-06T08:09:36.157Z,68.73
2023-03-06T08:10:43.661Z,68.73
2023-03-06T08:11:39.615Z,68.03
2023-03-06T08:12:36.840Z,68.62
2023-03-06T08:13:32.867Z,68.10
2023-03-06T08:14:20.587Z,68.73
2023-03-06T08:15:27.449Z,68.73
2023-03-06T08:16:34.945Z,68.93
2023-03-06T08:17:30.859Z,69.17
2023-03-06T08:18:26.963Z,69.14
2023-03-06T08:19:23.047Z,68.93
2023-03-06T08:20:19.226Z,68.83
2023-03-06T08:21:15.083Z,68.73
2023-03-06T08:22:11.446Z,68.31
2023-03-06T08:23:18.611Z,67.90
2023-03-06T08:24:14.674Z,68.10
2023-03-06T08:25:10.795Z,67.90
2023-03-06T08:26:06.904Z,68.10
2023-03-06T08:27:03.936Z,68.10
2023-03-06T08:28:00.652Z,67.90
2023-03-06T08:28:56.172Z,68.00
2023-03-06T08:29:52.073Z,68.21
2023-03-06T08:30:48.333Z,68.00
2023-03-06T08:31:45.387Z,68.00
2023-03-06T08:32:41.514Z,68.00
2023-03-06T08:33:37.452Z,68.10
2023-03-06T08:34:33.416Z,68.10
2023-03-06T08:35:41.054Z,68.31
2023-03-06T08:36:37.198Z,67.58
2023-03-06T08:37:33.261Z,67.90
2023-03-06T08:38:30.244Z,67.58
2023-03-06T08:39:26.344Z,67.69
2023-03-06T08:40:22.365Z,67.69
2023-03-06T08:41:19.448Z,67.79
2023-03-06T08:42:25.815Z,67.69
2023-03-06T08:43:21.789Z,67.93
2023-03-06T08:44:17.926Z,68.00
2023-03-06T08:45:25.256Z,67.27
2023-03-06T08:46:21.229Z,67.38
2023-03-06T08:47:17.286Z,67.17
2023-03-06T08:48:13.315Z,67.48
2023-03-06T08:49:09.368Z,67.48
2023-03-06T08:50:05.523Z,67.69
2023-03-06T08:51:02.506Z,67.82
2023-03-06T08:51:58.675Z,67.41
2023-03-06T08:52:55.055Z,67.48
2023-03-06T08:53:50.856Z,67.58
2023-03-06T08:54:46.979Z,68.10
2023-03-06T08:55:43.018Z,67.90
2023-03-06T08:56:38.962Z,67.38
2023-03-06T08:57:35.013Z,67.48
2023-03-06T08:58:31.175Z,67.72
2023-03-06T08:59:27.120Z,67.61
2023-03-06T09:00:25.221Z,67.61
2023-03-06T09:01:21.210Z,67.38
2023-03-06T09:02:17.365Z,67.48
2023-03-06T09:03:13.325Z,67.79
2023-03-06T09:04:10.399Z,67.58
2023-03-06T09:05:06.566Z,67.51
2023-03-06T09:06:03.499Z,67.51
2023-03-06T09:07:01.774Z,66.68
2023-03-06T09:07:58.689Z,67.27
2023-03-06T09:08:54.788Z,66.68
2023-03-06T09:09:51.927Z,67.20
2023-03-06T09:10:47.911Z,66.68
2023-03-06T09:11:44.006Z,66.68
2023-03-06T09:12:50.669Z,67.20
2023-03-06T09:13:38.090Z,67.72
2023-03-06T09:14:34.210Z,67.30
2023-03-06T09:15:30.264Z,67.20
2023-03-06T09:16:26.198Z,67.20
2023-03-06T09:17:22.355Z,66.68
2023-03-06T09:18:18.347Z,66.78
2023-03-06T09:19:15.305Z,66.58
2023-03-06T09:20:11.459Z,67.20
2023-03-06T09:21:08.468Z,66.58
2023-03-06T09:22:04.595Z,66.78
2023-03-06T09:23:00.679Z,66.58
2023-03-06T09:23:57.684Z,66.99
2023-03-06T09:24:53.959Z,66.58
2023-03-06T09:25:50.841Z,67.03
2023-03-06T09:26:48.377Z,67.10
2023-03-06T09:27:43.088Z,67.20
2023-03-06T09:28:39.299Z,67.10
2023-03-06T09:29:36.156Z,66.58
2023-03-06T09:30:32.335Z,66.89
2023-03-06T09:31:29.353Z,65.96
2023-03-06T09:32:25.643Z,66.27
2023-03-06T09:33:10.421Z,66.27
2023-03-06T09:34:07.485Z,66.68
2023-03-06T09:35:03.539Z,66.68
2023-03-06T09:36:00.660Z,66.27
2023-03-06T09:36:57.752Z,66.27
2023-03-06T09:38:04.096Z,66.27
2023-03-06T09:39:01.112Z,65.96
2023-03-06T09:39:57.184Z,66.38
2023-03-06T09:40:54.191Z,66.27
2023-03-06T09:41:51.411Z,66.27
2023-03-06T09:42:47.425Z,66.27
2023-03-06T09:43:43.403Z,66.38
2023-03-06T09:44:42.180Z,66.38
2023-03-06T09:45:38.273Z,66.09
2023-03-06T09:46:34.387Z,65.68
2023-03-06T09:47:30.380Z,66.78
2023-03-06T09:48:27.450Z,66.89
2023-03-06T09:49:23.489Z,66.17
2023-03-06T09:50:20.649Z,65.75
2023-03-06T09:51:16.920Z,66.93
2023-03-06T09:52:12.762Z,65.96
2023-03-06T09:53:08.760Z,66.27
2023-03-06T09:53:54.038Z,66.20
2023-03-06T09:54:50.214Z,65.78
2023-03-06T09:55:46.155Z,65.78
2023-03-06T09:56:42.775Z,66.27
2023-03-06T09:57:38.578Z,65.58
2023-03-06T09:58:34.416Z,65.99
2023-03-06T09:59:41.734Z,65.86
2023-03-06T10:00:38.854Z,65.78
2023-03-06T10:01:34.986Z,65.89
2023-03-06T10:02:31.046Z,65.89
2023-03-06T10:03:27.314Z,66.09
2023-03-06T10:04:24.480Z,65.96
2023-03-06T10:05:20.444Z,65.75
2023-03-06T10:06:16.813Z,66.09
2023-03-06T10:07:12.642Z,66.09
2023-03-06T10:08:08.935Z,66.17
2023-03-06T10:09:05.904Z,66.20
2023-03-06T10:10:01.942Z,65.96
2023-03-06T10:10:59.059Z,66.09
2023-03-06T10:11:56.042Z,65.78
2023-03-06T10:12:53.201Z,66.30
2023-03-06T10:13:49.629Z,66.30
2023-03-06T10:14:48.914Z,65.78
2023-03-06T10:15:42.426Z,65.99
2023-03-06T10:16:38.439Z,66.09
2023-03-06T10:17:34.556Z,65.75
2023-03-06T10:18:30.497Z,65.68
2023-03-06T10:19:26.907Z,65.99
2023-03-06T10:20:23.057Z,65.75
2023-03-06T10:21:31.244Z,66.17
2023-03-06T10:22:27.461Z,66.20
2023-03-06T10:23:25.397Z,65.99
2023-03-06T10:24:22.329Z,65.89
2023-03-06T10:25:18.456Z,65.65
2023-03-06T10:26:14.720Z,65.78
2023-03-06T10:27:10.662Z,65.86
2023-03-06T10:28:15.430Z,66.09
2023-03-06T10:29:00.392Z,66.06
2023-03-06T10:30:02.527Z,65.75
2023-03-06T10:30:53.108Z,65.96
2023-03-06T10:31:51.242Z,65.96
2023-03-06T10:32:49.033Z,65.99
2023-03-06T10:33:44.274Z,65.96
2023-03-06T10:34:40.415Z,66.17
2023-03-06T10:35:36.586Z,66.17
2023-03-06T10:36:32.451Z,66.38
2023-03-06T10:37:17.570Z,66.06
2023-03-06T10:38:13.465Z,65.96
2023-03-06T10:39:09.662Z,66.06
2023-03-06T10:40:05.638Z,65.96
2023-03-06T10:41:03.759Z,65.96
2023-03-06T10:42:00.795Z,65.96
2023-03-06T10:43:11.818Z,66.17
2023-03-06T10:44:13.894Z,65.86
2023-03-06T10:45:18.001Z,65.96
2023-03-06T10:46:22.825Z,65.86
2023-03-06T10:47:29.361Z,65.86
2023-03-06T10:48:34.362Z,66.06
2023-03-06T10:49:27.237Z,66.06
2023-03-06T10:50:32.994Z,65.96
2023-03-06T10:51:38.199Z,65.96
2023-03-06T10:52:46.718Z,66.27
2023-03-06T10:53:42.751Z,65.55
2023-03-06T10:54:38.767Z,65.34
2023-03-06T10:55:34.800Z,65.65
2023-03-06T10:56:30.921Z,65.62
2023-03-06T10:57:24.859Z,65.13
2023-03-06T10:58:20.384Z,65.75
2023-03-06T10:59:16.011Z,66.06
2023-03-06T11:00:11.548Z,65.96
2023-03-06T11:01:07.108Z,65.65
2023-03-06T11:02:04.365Z,65.31
2023-03-06T11:02:59.734Z,65.44
2023-03-06T11:03:55.267Z,65.34
2023-03-06T11:04:50.926Z,64.79
2023-03-06T11:05:46.339Z,65.34
2023-03-06T11:06:41.864Z,65.44
2023-03-06T11:07:38.398Z,65.52
2023-03-06T11:08:33.966Z,64.79
2023-03-06T11:09:29.469Z,65.10
2023-03-06T11:10:25.002Z,64.58
2023-03-06T11:11:36.546Z,65.20
2023-03-06T11:12:16.089Z,65.10
2023-03-06T11:13:11.718Z,65.41
2023-03-06T11:14:07.243Z,64.79
2023-03-06T11:15:02.771Z,65.72
2023-03-06T11:15:58.385Z,65.52
2023-03-06T11:16:53.836Z,65.31
2023-03-06T11:17:49.355Z,64.17
2023-03-06T11:18:44.914Z,64.48
2023-03-06T11:19:40.418Z,63.96
2023-03-06T11:20:50.464Z,64.79
2023-03-06T11:21:31.928Z,65.00
2023-03-06T11:22:27.010Z,65.31
2023-03-06T11:23:22.546Z,65.52
2023-03-06T11:24:18.094Z,65.28
2023-03-06T11:25:13.587Z,64.89
2023-03-06T11:26:09.116Z,64.89
2023-03-06T11:27:04.653Z,64.76
2023-03-06T11:28:00.237Z,64.27
2023-03-06T11:28:55.768Z,64.58
2023-03-06T11:29:51.252Z,64.37
2023-03-06T11:30:46.784Z,64.37
2023-03-06T11:31:42.358Z,64.58
2023-03-06T11:32:37.883Z,63.72
2023-03-06T11:33:33.376Z,63.82
2023-03-06T11:34:28.914Z,63.75
2023-03-06T11:35:24.461Z,64.17
2023-03-06T11:36:19.953Z,63.62
2023-03-06T11:37:15.481Z,63.96
2023-03-06T11:38:11.038Z,64.27
2023-03-06T11:39:06.572Z,64.34
2023-03-06T11:40:02.145Z,63.65
2023-03-06T11:40:57.639Z,63.75
2023-03-06T11:41:53.177Z,64.03
2023-03-06T11:42:48.701Z,63.62
2023-03-06T11:43:44.225Z,63.82
2023-03-06T11:44:39.756Z,63.41
2023-03-06T11:45:35.289Z,63.82
2023-03-06T11:46:30.870Z,63.51
2023-03-06T11:47:26.332Z,62.58
2023-03-06T11:48:21.874Z,62.99
2023-03-06T11:49:17.395Z,63.10
2023-03-06T11:50:12.925Z,62.79
2023-03-06T11:51:08.446Z,62.58
2023-03-06T11:52:03.976Z,62.89
2023-03-06T11:52:59.528Z,62.99
2023-03-06T11:53:55.060Z,62.89
2023-03-06T11:54:50.581Z,63.54
2023-03-06T11:55:46.135Z,63.62
2023-03-06T11:56:41.630Z,63.51
2023-03-06T11:57:37.145Z,63.51
2023-03-06T11:58:32.679Z,63.51
2023-03-06T11:59:28.202Z,63.41
2023-03-06T12:00:23.725Z,62.79
2023-03-06T12:01:19.289Z,62.99
2023-03-06T12:02:14.907Z,62.99
2023-03-06T12:03:10.395Z,62.99